createdAt,value
2019-03-13T00:00:33.859Z,4.9
2019-03-13T00:01:34.019Z,4.8
2019-03-13T00:02:34.291Z,4.8
2019-03-13T00:03:34.045Z,4.8
2019-03-13T00:04:34.115Z,4.7
2019-03-13T00:05:34.168Z,4.7
2019-03-13T00:06:34.193Z,4.7
2019-03-13T00:07:34.252Z,4.7
2019-03-13T00:08:34.300Z,4.8
2019-03-13T00:09:34.920Z,4.8
2019-03-13T00:10:34.463Z,4.8
2019-03-13T00:11:35.557Z,4.9
2019-03-13T00:12:34.564Z,4.9
2019-03-13T00:13:34.598Z,4.8
2019-03-13T00:14:34.614Z,4.7
2019-03-13T00:15:34.942Z,4.7
2019-03-13T00:16:34.767Z,4.7
2019-03-13T00:17:35.406Z,4.8
2019-03-13T00:18:34.809Z,4.9
2019-03-13T00:19:34.886Z,4.8
2019-03-13T00:20:35.017Z,4.8
2019-03-13T00:21:35.184Z,4.8
2019-03-13T00:22:35.067Z,4.8
2019-03-13T00:23:35.099Z,4.8
2019-03-13T00:24:35.280Z,4.9
2019-03-13T00:25:35.631Z,4.8
2019-03-13T00:26:35.953Z,4.8
2019-03-13T00:27:35.364Z,4.8
2019-03-13T00:28:35.396Z,4.8
2019-03-13T00:29:35.572Z,4.8
2019-03-13T00:30:35.834Z,4.8
2019-03-13T00:31:35.630Z,4.8
2019-03-13T00:32:35.864Z,4.8
2019-03-13T00:33:35.717Z,4.8
2019-03-13T00:34:35.744Z,4.8
2019-03-13T00:35:36.040Z,4.8
2019-03-13T00:36:35.906Z,4.8
2019-03-13T00:37:36.118Z,4.9
2019-03-13T00:38:36.049Z,4.9
2019-03-13T00:39:36.327Z,4.9
2019-03-13T00:40:36.109Z,4.8
2019-03-13T00:41:36.525Z,4.8
2019-03-13T00:42:37.228Z,4.8
2019-03-13T00:43:36.892Z,4.8
2019-03-13T00:44:36.753Z,4.8
2019-03-13T00:45:36.325Z,4.7
2019-03-13T00:46:37.188Z,4.7
2019-03-13T00:47:37.746Z,4.7
2019-03-13T00:48:37.060Z,4.8
2019-03-13T00:49:36.552Z,4.7
2019-03-13T00:50:36.631Z,4.6
2019-03-13T00:51:38.727Z,4.6
2019-03-13T00:52:38.693Z,4.7
2019-03-13T00:53:38.088Z,4.7
2019-03-13T00:54:37.972Z,4.5
2019-03-13T00:55:37.826Z,4.5
2019-03-13T00:56:38.197Z,4.6
2019-03-13T00:57:37.533Z,4.5
2019-03-13T00:58:39.815Z,4.6
2019-03-13T00:59:37.385Z,4.7
2019-03-13T01:00:38.115Z,4.7
2019-03-13T01:01:38.255Z,4.7
2019-03-13T01:02:39.020Z,4.7
2019-03-13T01:03:37.781Z,4.7
2019-03-13T01:04:38.866Z,4.7
2019-03-13T01:05:40.323Z,4.7
2019-03-13T01:06:40.416Z,4.8
2019-03-13T01:07:40.733Z,4.7
2019-03-13T01:08:37.653Z,4.8
2019-03-13T01:09:37.860Z,4.8
2019-03-13T01:10:41.103Z,4.8
2019-03-13T01:11:39.339Z,4.7
2019-03-13T01:12:37.977Z,4.6
2019-03-13T01:13:38.294Z,4.7
2019-03-13T01:14:38.282Z,4.7
2019-03-13T01:15:38.184Z,4.7
2019-03-13T01:16:38.235Z,4.7
2019-03-13T01:17:39.078Z,4.7
2019-03-13T01:18:38.417Z,4.8
2019-03-13T01:19:38.315Z,4.7
2019-03-13T01:20:38.399Z,4.6
2019-03-13T01:21:38.474Z,4.7
2019-03-13T01:22:38.511Z,4.8
2019-03-13T01:23:38.547Z,4.9
2019-03-13T01:24:38.628Z,4.8
2019-03-13T01:25:38.745Z,4.8
2019-03-13T01:26:38.862Z,4.8
2019-03-13T01:27:38.805Z,4.7
2019-03-13T01:28:38.902Z,4.7
2019-03-13T01:29:38.938Z,4.6
2019-03-13T01:30:38.964Z,4.7
2019-03-13T01:31:39.008Z,4.6
2019-03-13T01:32:39.121Z,4.6
2019-03-13T01:33:39.107Z,4.7
2019-03-13T01:34:39.166Z,4.9
2019-03-13T01:35:39.230Z,4.9
2019-03-13T01:36:39.309Z,4.7
2019-03-13T01:37:39.381Z,4.7
2019-03-13T01:38:39.410Z,4.8
2019-03-13T01:39:39.456Z,4.8
2019-03-13T01:40:39.577Z,4.7
2019-03-13T01:41:39.593Z,4.7
2019-03-13T01:42:39.666Z,4.7
2019-03-13T01:43:39.754Z,4.7
2019-03-13T01:44:40.788Z,4.7
2019-03-13T01:45:39.888Z,4.7
2019-03-13T01:46:39.965Z,4.8
2019-03-13T01:47:40.055Z,4.8
2019-03-13T01:48:40.109Z,4.7
2019-03-13T01:49:40.149Z,4.7
2019-03-13T01:50:40.170Z,4.6
2019-03-13T01:51:40.249Z,4.6
2019-03-13T01:52:40.319Z,4.7
2019-03-13T01:53:40.323Z,4.8
2019-03-13T01:54:40.422Z,4.8
2019-03-13T01:55:40.491Z,4.7
2019-03-13T01:56:40.484Z,4.7
2019-03-13T01:57:40.582Z,4.7
2019-03-13T01:58:40.620Z,4.7
2019-03-13T01:59:40.664Z,4.8
2019-03-13T02:00:40.711Z,4.7
2019-03-13T02:01:40.768Z,4.8
2019-03-13T02:02:41.025Z,4.8
2019-03-13T02:03:40.865Z,4.8
2019-03-13T02:04:40.954Z,4.8
2019-03-13T02:05:40.962Z,4.7
2019-03-13T02:06:41.021Z,4.7
2019-03-13T02:07:41.082Z,4.8
2019-03-13T02:08:41.182Z,4.9
2019-03-13T02:09:41.223Z,4.8
2019-03-13T02:10:41.348Z,4.8
2019-03-13T02:11:41.332Z,4.7
2019-03-13T02:12:41.373Z,4.8
2019-03-13T02:13:41.472Z,4.8
2019-03-13T02:14:41.514Z,4.7
2019-03-13T02:15:41.546Z,4.7
2019-03-13T02:16:41.646Z,4.9
2019-03-13T02:17:41.693Z,4.8
2019-03-13T02:18:41.737Z,4.8
2019-03-13T02:19:41.817Z,4.8
2019-03-13T02:20:41.998Z,4.8
2019-03-13T02:21:41.906Z,4.8
2019-03-13T02:22:41.991Z,4.7
2019-03-13T02:23:42.065Z,4.7
2019-03-13T02:24:42.137Z,4.8
2019-03-13T02:25:42.300Z,4.8
2019-03-13T02:26:42.260Z,4.8
2019-03-13T02:27:42.325Z,4.7
2019-03-13T02:28:42.361Z,4.7
2019-03-13T02:29:42.447Z,4.6
2019-03-13T02:30:42.505Z,4.5
2019-03-13T02:31:42.539Z,4.7
2019-03-13T02:32:42.792Z,4.7
2019-03-13T02:33:42.818Z,4.6
2019-03-13T02:34:42.948Z,4.6
2019-03-13T02:35:43.083Z,4.5
2019-03-13T02:36:43.086Z,4.6
2019-03-13T02:37:43.228Z,4.5
2019-03-13T02:38:43.230Z,4.5
2019-03-13T02:39:43.238Z,4.4
2019-03-13T02:40:43.423Z,4.4
2019-03-13T02:41:43.385Z,4.4
2019-03-13T02:42:44.130Z,4.6
2019-03-13T02:43:43.409Z,4.6
2019-03-13T02:44:43.532Z,4.6
2019-03-13T02:45:43.504Z,4.6
2019-03-13T02:46:43.484Z,4.6
2019-03-13T02:47:43.552Z,4.6
2019-03-13T02:48:43.599Z,4.7
2019-03-13T02:49:43.642Z,4.9
2019-03-13T02:50:43.773Z,4.8
2019-03-13T02:51:43.808Z,4.7
2019-03-13T02:52:44.137Z,4.5
2019-03-13T02:53:43.906Z,4.5
2019-03-13T02:54:44.008Z,4.5
2019-03-13T02:55:44.109Z,4.6
2019-03-13T02:56:44.119Z,4.6
2019-03-13T02:57:44.186Z,4.5
2019-03-13T02:58:44.271Z,4.5
2019-03-13T02:59:44.292Z,4.7
2019-03-13T03:00:44.389Z,4.6
2019-03-13T03:01:44.403Z,4.5
2019-03-13T03:02:44.453Z,4.6
2019-03-13T03:03:44.538Z,4.6
2019-03-13T03:04:44.567Z,4.6
2019-03-13T03:05:44.649Z,4.5
2019-03-13T03:06:44.717Z,4.6
2019-03-13T03:07:45.021Z,4.5
2019-03-13T03:08:44.797Z,4.5
2019-03-13T03:09:44.835Z,4.5
2019-03-13T03:10:44.907Z,4.5
2019-03-13T03:11:44.960Z,4.6
2019-03-13T03:12:45.025Z,4.6
2019-03-13T03:13:45.095Z,4.6
2019-03-13T03:14:45.125Z,4.7
2019-03-13T03:15:45.205Z,4.8
2019-03-13T03:16:45.229Z,4.7
2019-03-13T03:17:45.299Z,4.6
2019-03-13T03:18:45.332Z,4.5
2019-03-13T03:19:45.496Z,4.5
2019-03-13T03:20:45.550Z,4.5
2019-03-13T03:21:45.582Z,4.5
2019-03-13T03:22:45.822Z,4.5
2019-03-13T03:23:45.755Z,4.6
2019-03-13T03:24:45.879Z,4.6
2019-03-13T03:25:45.866Z,4.6
2019-03-13T03:26:45.805Z,4.5
2019-03-13T03:27:45.900Z,4.6
2019-03-13T03:28:45.988Z,4.6
2019-03-13T03:29:45.972Z,4.6
2019-03-13T03:30:46.034Z,4.6
2019-03-13T03:31:46.109Z,4.4
2019-03-13T03:32:46.230Z,4.5
2019-03-13T03:33:46.201Z,4.6
2019-03-13T03:34:46.247Z,4.6
2019-03-13T03:35:46.296Z,4.6
2019-03-13T03:36:46.370Z,4.6
2019-03-13T03:37:46.488Z,4.7
2019-03-13T03:38:46.459Z,4.8
2019-03-13T03:39:46.535Z,4.7
2019-03-13T03:40:46.730Z,4.7
2019-03-13T03:41:46.626Z,4.7
2019-03-13T03:42:46.844Z,4.7
2019-03-13T03:43:46.759Z,4.7
2019-03-13T03:44:46.818Z,4.9
2019-03-13T03:45:46.869Z,4.7
2019-03-13T03:46:47.011Z,4.7
2019-03-13T03:47:47.135Z,4.6
2019-03-13T03:48:47.043Z,4.6
2019-03-13T03:49:47.132Z,4.8
2019-03-13T03:50:47.174Z,4.8
2019-03-13T03:51:47.219Z,4.9
2019-03-13T03:52:47.402Z,4.8
2019-03-13T03:53:47.343Z,4.7
2019-03-13T03:54:47.380Z,4.6
2019-03-13T03:55:47.425Z,4.6
2019-03-13T03:56:47.515Z,4.7
2019-03-13T03:57:47.590Z,4.6
2019-03-13T03:59:20.483Z,4.6
2019-03-13T03:59:47.703Z,4.6
2019-03-13T04:00:47.771Z,4.6
2019-03-13T04:01:47.814Z,4.6
2019-03-13T04:02:48.096Z,4.6
2019-03-13T04:03:47.928Z,4.5
2019-03-13T04:04:47.945Z,4.5
2019-03-13T04:05:48.031Z,4.5
2019-03-13T04:06:48.104Z,4.5
2019-03-13T04:07:48.142Z,4.5
2019-03-13T04:08:48.205Z,4.5
2019-03-13T04:09:48.273Z,4.6
2019-03-13T04:10:48.301Z,4.5
2019-03-13T04:11:48.383Z,4.5
2019-03-13T04:12:48.842Z,4.5
2019-03-13T04:13:48.513Z,4.5
2019-03-13T04:14:48.589Z,4.5
2019-03-13T04:15:48.624Z,4.5
2019-03-13T04:16:48.706Z,4.6
2019-03-13T04:17:48.764Z,4.6
2019-03-13T04:18:48.821Z,4.7
2019-03-13T04:19:48.842Z,4.6
2019-03-13T04:20:48.935Z,4.7
2019-03-13T04:21:49.026Z,4.6
2019-03-13T04:22:49.052Z,4.6
2019-03-13T04:23:49.083Z,4.6
2019-03-13T04:24:49.151Z,4.6
2019-03-13T04:25:49.166Z,4.6
2019-03-13T04:26:49.292Z,4.6
2019-03-13T04:27:49.337Z,4.6
2019-03-13T04:28:49.392Z,4.6
2019-03-13T04:29:49.417Z,4.6
2019-03-13T04:30:49.481Z,4.6
2019-03-13T04:31:49.528Z,4.6
2019-03-13T04:32:49.647Z,4.7
2019-03-13T04:33:49.802Z,4.7
2019-03-13T04:34:49.729Z,4.7
2019-03-13T04:35:49.813Z,4.6
2019-03-13T04:36:49.844Z,4.6
2019-03-13T04:37:49.923Z,4.6
2019-03-13T04:38:50.047Z,4.7
2019-03-13T04:39:50.033Z,4.7
2019-03-13T04:40:50.111Z,4.8
2019-03-13T04:41:50.163Z,4.8
2019-03-13T04:42:50.231Z,4.8
2019-03-13T04:43:50.279Z,4.8
2019-03-13T04:44:50.311Z,4.8
2019-03-13T04:45:50.374Z,4.8
2019-03-13T04:46:50.481Z,4.8
2019-03-13T04:47:50.514Z,4.8
2019-03-13T04:48:50.629Z,4.7
2019-03-13T04:49:50.650Z,4.8
2019-03-13T04:50:50.667Z,4.8
2019-03-13T04:51:50.740Z,4.8
2019-03-13T04:52:50.814Z,4.8
2019-03-13T04:53:50.875Z,4.7
2019-03-13T04:54:51.033Z,4.8
2019-03-13T04:55:52.480Z,4.8
2019-03-13T04:56:51.053Z,4.8
2019-03-13T04:57:51.236Z,4.9
2019-03-13T04:58:51.153Z,5
2019-03-13T04:59:51.215Z,4.9
2019-03-13T05:00:51.267Z,4.9
2019-03-13T05:01:51.294Z,4.8
2019-03-13T05:02:52.255Z,4.8
2019-03-13T05:03:51.458Z,4.9
2019-03-13T05:04:52.301Z,4.9
2019-03-13T05:05:52.359Z,4.9
2019-03-13T05:06:51.725Z,5
2019-03-13T05:07:51.878Z,4.9
2019-03-13T05:08:52.497Z,4.9
2019-03-13T05:09:52.117Z,4.9
2019-03-13T05:10:52.277Z,4.9
2019-03-13T05:11:52.039Z,4.9
2019-03-13T05:12:53.374Z,4.9
2019-03-13T05:13:52.245Z,4.9
2019-03-13T05:14:52.030Z,4.9
2019-03-13T05:15:52.118Z,5
2019-03-13T05:16:52.180Z,5
2019-03-13T05:17:52.236Z,5
2019-03-13T05:18:52.405Z,5
2019-03-13T05:19:52.343Z,5
2019-03-13T05:20:52.391Z,4.9
2019-03-13T05:21:52.459Z,5
2019-03-13T05:22:53.049Z,5
2019-03-13T05:23:52.631Z,5
2019-03-13T05:24:52.718Z,5
2019-03-13T05:25:52.682Z,5
2019-03-13T05:26:52.739Z,5
2019-03-13T05:27:52.790Z,5
2019-03-13T05:28:52.868Z,4.9
2019-03-13T05:29:52.994Z,5
2019-03-13T05:30:53.351Z,5.1
2019-03-13T05:31:53.039Z,5.1
2019-03-13T05:32:53.137Z,5
2019-03-13T05:33:53.172Z,5
2019-03-13T05:34:53.204Z,5
2019-03-13T05:35:53.267Z,5
2019-03-13T05:36:53.347Z,5
2019-03-13T05:37:53.371Z,4.9
2019-03-13T05:38:53.498Z,4.8
2019-03-13T05:39:53.503Z,4.9
2019-03-13T05:40:53.598Z,5.1
2019-03-13T05:41:53.615Z,5.1
2019-03-13T05:42:53.704Z,5.2
2019-03-13T05:43:53.934Z,5.1
2019-03-13T05:44:53.810Z,5.1
2019-03-13T05:45:53.862Z,5.1
2019-03-13T05:46:53.918Z,5.1
2019-03-13T05:47:53.964Z,5.1
2019-03-13T05:48:54.071Z,5.1
2019-03-13T05:49:54.136Z,5.1
2019-03-13T05:50:54.181Z,5.1
2019-03-13T05:51:54.230Z,5
2019-03-13T05:52:54.322Z,5
2019-03-13T05:53:54.336Z,5.1
2019-03-13T05:54:54.465Z,5.1
2019-03-13T05:55:54.474Z,5
2019-03-13T05:56:54.489Z,5
2019-03-13T05:57:54.657Z,5.1
2019-03-13T05:58:54.587Z,5.1
2019-03-13T05:59:54.809Z,5.1
2019-03-13T06:00:54.736Z,5.1
2019-03-13T06:01:54.815Z,5.1
2019-03-13T06:02:54.842Z,5.1
2019-03-13T06:03:59.740Z,5.1
2019-03-13T06:04:54.966Z,5.1
2019-03-13T06:05:55.078Z,5.1
2019-03-13T06:06:55.121Z,5.1
2019-03-13T06:07:55.166Z,5.1
2019-03-13T06:08:55.280Z,5
2019-03-13T06:09:55.277Z,5
2019-03-13T06:10:55.433Z,5
2019-03-13T06:11:55.400Z,5.1
2019-03-13T06:12:55.470Z,5.1
2019-03-13T06:14:10.104Z,5
2019-03-13T06:14:56.650Z,5.1
2019-03-13T06:15:55.915Z,5.1
2019-03-13T06:16:55.665Z,5.1
2019-03-13T06:17:55.791Z,5.1
2019-03-13T06:18:55.800Z,5.1
2019-03-13T06:19:55.877Z,5.1
2019-03-13T06:20:56.004Z,5.1
2019-03-13T06:21:56.019Z,5.1
2019-03-13T06:22:56.125Z,5.1
2019-03-13T06:23:56.198Z,5.1
2019-03-13T06:24:56.156Z,5.1
2019-03-13T06:25:56.233Z,5.2
2019-03-13T06:26:56.331Z,5.1
2019-03-13T06:27:56.423Z,5.1
2019-03-13T06:28:56.416Z,5.2
2019-03-13T06:29:56.477Z,5.2
2019-03-13T06:30:56.577Z,5.2
2019-03-13T06:31:56.626Z,5.2
2019-03-13T06:32:56.660Z,5.2
2019-03-13T06:33:56.690Z,5.2
2019-03-13T06:34:56.807Z,5.2
2019-03-13T06:35:57.110Z,5.2
2019-03-13T06:36:56.847Z,5.1
2019-03-13T06:37:56.917Z,5.1
2019-03-13T06:38:56.946Z,5.2
2019-03-13T06:39:57.027Z,5.1
2019-03-13T06:40:57.075Z,5.2
2019-03-13T06:41:57.124Z,5.2
2019-03-13T06:42:57.223Z,5.2
2019-03-13T06:43:57.256Z,5.2
2019-03-13T06:44:57.325Z,5.2
2019-03-13T06:45:57.304Z,5.3
2019-03-13T06:46:57.384Z,5.4
2019-03-13T06:47:57.427Z,5.3
2019-03-13T06:48:57.533Z,5.3
2019-03-13T06:49:57.586Z,5.3
2019-03-13T06:50:57.680Z,5.3
2019-03-13T06:51:57.764Z,5.4
2019-03-13T06:52:58.125Z,5.3
2019-03-13T06:53:57.894Z,5.3
2019-03-13T06:54:57.928Z,5.3
2019-03-13T06:55:57.938Z,5.4
2019-03-13T06:56:57.987Z,5.4
2019-03-13T06:57:58.058Z,5.4
2019-03-13T06:59:08.875Z,5.3
2019-03-13T06:59:58.352Z,5.3
2019-03-13T07:00:58.234Z,5.4
2019-03-13T07:01:58.274Z,5.4
2019-03-13T07:02:58.364Z,5.4
2019-03-13T07:03:58.411Z,5.4
2019-03-13T07:04:58.546Z,5.4
2019-03-13T07:05:58.667Z,5.3
2019-03-13T07:06:58.643Z,5.4
2019-03-13T07:07:58.691Z,5.4
2019-03-13T07:08:58.798Z,5.4
2019-03-13T07:09:58.837Z,5.4
2019-03-13T07:10:58.878Z,5.4
2019-03-13T07:11:58.887Z,5.5
2019-03-13T07:12:58.975Z,5.4
2019-03-13T07:13:59.038Z,5.5
2019-03-13T07:14:59.119Z,5.5
2019-03-13T07:15:59.126Z,5.5
2019-03-13T07:16:59.186Z,5.5
2019-03-13T07:17:59.268Z,5.5
2019-03-13T07:18:59.351Z,5.5
2019-03-13T07:19:59.522Z,5.6
2019-03-13T07:20:59.432Z,5.6
2019-03-13T07:21:59.473Z,5.5
2019-03-13T07:22:59.534Z,5.5
2019-03-13T07:23:59.609Z,5.5
2019-03-13T07:24:59.716Z,5.6
2019-03-13T07:25:59.826Z,5.6
2019-03-13T07:26:59.793Z,5.5
2019-03-13T07:27:59.834Z,5.5
2019-03-13T07:29:11.368Z,5.5
2019-03-13T07:29:59.955Z,5.5
2019-03-13T07:30:59.998Z,5.5
2019-03-13T07:32:00.060Z,5.5
2019-03-13T07:33:00.492Z,5.5
2019-03-13T07:34:00.620Z,5.5
2019-03-13T07:35:00.664Z,5.5
2019-03-13T07:36:00.582Z,5.5
2019-03-13T07:37:00.544Z,5.5
2019-03-13T07:38:00.669Z,5.5
2019-03-13T07:39:00.610Z,5.6
2019-03-13T07:40:00.510Z,5.5
2019-03-13T07:41:00.559Z,5.5
2019-03-13T07:42:00.617Z,5.5
2019-03-13T07:43:00.656Z,5.6
2019-03-13T07:44:00.721Z,5.6
2019-03-13T07:45:00.752Z,5.6
2019-03-13T07:46:00.881Z,5.6
2019-03-13T07:47:00.914Z,5.6
2019-03-13T07:48:00.968Z,5.6
2019-03-13T07:49:01.058Z,5.6
2019-03-13T07:50:01.118Z,5.6
2019-03-13T07:51:01.186Z,5.6
2019-03-13T07:52:01.201Z,5.6
2019-03-13T07:53:01.264Z,5.6
2019-03-13T07:54:01.318Z,5.6
2019-03-13T07:55:01.344Z,5.6
2019-03-13T07:56:01.420Z,5.6
2019-03-13T07:57:01.456Z,5.6
2019-03-13T07:58:01.526Z,5.6
2019-03-13T07:59:01.564Z,5.6
2019-03-13T08:00:01.710Z,5.6
2019-03-13T08:01:01.726Z,5.6
2019-03-13T08:02:01.696Z,5.6
2019-03-13T08:03:01.774Z,5.7
2019-03-13T08:04:04.840Z,5.7
2019-03-13T08:05:01.906Z,5.6
2019-03-13T08:06:02.009Z,5.6
2019-03-13T08:07:01.993Z,5.6
2019-03-13T08:08:02.075Z,5.7
2019-03-13T08:09:02.127Z,5.7
2019-03-13T08:10:02.166Z,5.6
2019-03-13T08:11:02.191Z,5.6
2019-03-13T08:12:02.302Z,5.6
2019-03-13T08:13:02.311Z,5.6
2019-03-13T08:14:02.389Z,5.6
2019-03-13T08:15:02.466Z,5.7
2019-03-13T08:16:02.525Z,5.8
2019-03-13T08:17:02.630Z,5.7
2019-03-13T08:18:02.675Z,5.7
2019-03-13T08:19:02.713Z,5.7
2019-03-13T08:20:02.806Z,5.7
2019-03-13T08:21:02.836Z,5.8
2019-03-13T08:22:04.220Z,5.8
2019-03-13T08:22:04.220Z,5.8
2019-03-13T08:23:02.896Z,5.8
2019-03-13T08:25:09.348Z,5.7
2019-03-13T08:26:09.393Z,5.7
2019-03-13T08:27:09.443Z,5.8
2019-03-13T08:28:09.530Z,5.7
2019-03-13T08:29:09.549Z,5.7
2019-03-13T08:30:09.640Z,5.7
2019-03-13T08:31:09.656Z,5.8
2019-03-13T08:32:09.739Z,5.7
2019-03-13T08:33:09.774Z,5.7
2019-03-13T08:34:09.883Z,5.7
2019-03-13T08:35:09.929Z,5.7
2019-03-13T08:36:10.010Z,5.7
2019-03-13T08:37:10.079Z,5.7
2019-03-13T08:38:10.145Z,5.8
2019-03-13T08:39:10.197Z,5.8
2019-03-13T08:40:10.274Z,5.7
2019-03-13T08:41:10.299Z,5.7
2019-03-13T08:42:10.356Z,5.7
2019-03-13T08:43:10.402Z,5.7
2019-03-13T08:44:10.555Z,5.7
2019-03-13T08:45:10.558Z,5.7
2019-03-13T08:46:10.625Z,5.7
2019-03-13T08:47:10.687Z,5.7
2019-03-13T08:48:10.750Z,5.7
2019-03-13T08:49:10.797Z,5.7
2019-03-13T08:50:10.858Z,5.7
2019-03-13T08:51:10.913Z,5.7
2019-03-13T08:52:10.949Z,5.7
2019-03-13T08:53:11.062Z,5.7
2019-03-13T08:54:11.123Z,5.7
2019-03-13T08:55:11.201Z,5.8
2019-03-13T08:56:11.187Z,5.8
2019-03-13T08:57:11.237Z,5.8
2019-03-13T08:58:11.299Z,5.8
2019-03-13T08:59:11.378Z,5.8
2019-03-13T09:00:11.501Z,5.8
2019-03-13T09:01:11.503Z,5.8
2019-03-13T09:02:11.529Z,5.8
2019-03-13T09:03:11.616Z,5.8
2019-03-13T09:04:11.653Z,5.8
2019-03-13T09:05:11.722Z,5.8
2019-03-13T09:06:11.737Z,5.8
2019-03-13T09:07:11.829Z,5.7
2019-03-13T09:08:11.899Z,5.8
2019-03-13T09:09:11.950Z,5.7
2019-03-13T09:10:12.224Z,5.8
2019-03-13T09:11:12.093Z,5.8
2019-03-13T09:12:12.119Z,5.8
2019-03-13T09:13:12.198Z,5.8
2019-03-13T09:14:12.260Z,5.8
2019-03-13T09:15:12.333Z,5.8
2019-03-13T09:16:12.551Z,5.8
2019-03-13T09:17:12.447Z,5.8
2019-03-13T09:18:12.504Z,5.8
2019-03-13T09:19:12.543Z,5.8
2019-03-13T09:20:12.612Z,5.8
2019-03-13T09:21:12.660Z,5.8
2019-03-13T09:22:12.861Z,5.8
2019-03-13T09:23:12.784Z,5.9
2019-03-13T09:24:12.825Z,5.8
2019-03-13T09:25:12.918Z,5.7
2019-03-13T09:26:12.995Z,5.7
2019-03-13T09:27:13.120Z,5.7
2019-03-13T09:28:13.102Z,5.8
2019-03-13T09:29:13.241Z,5.8
2019-03-13T09:30:13.244Z,5.7
2019-03-13T09:31:13.363Z,5.7
2019-03-13T09:32:13.327Z,5.8
2019-03-13T09:33:13.406Z,5.8
2019-03-13T09:34:13.459Z,5.8
2019-03-13T09:35:13.568Z,5.8
2019-03-13T09:36:13.604Z,5.8
2019-03-13T09:37:13.740Z,5.8
2019-03-13T09:38:13.767Z,5.7
2019-03-13T09:39:13.752Z,5.8
2019-03-13T09:40:13.825Z,5.7
2019-03-13T09:41:13.843Z,5.8
2019-03-13T09:42:13.947Z,5.8
2019-03-13T09:43:14.106Z,5.8
2019-03-13T09:44:14.031Z,5.7
2019-03-13T09:45:14.616Z,5.8
2019-03-13T09:46:14.143Z,5.8
2019-03-13T09:47:14.246Z,5.8
2019-03-13T09:48:14.263Z,5.8
2019-03-13T09:49:14.946Z,5.8
2019-03-13T09:50:14.356Z,5.8
2019-03-13T09:51:14.684Z,5.9
2019-03-13T09:52:14.471Z,5.9
2019-03-13T09:53:14.860Z,5.9
2019-03-13T09:54:14.586Z,5.8
2019-03-13T09:55:14.639Z,5.8
2019-03-13T09:56:14.694Z,5.8
2019-03-13T09:57:14.950Z,5.8
2019-03-13T09:58:14.882Z,5.8
2019-03-13T09:59:14.920Z,5.8
2019-03-13T10:00:14.958Z,5.9
2019-03-13T10:01:14.992Z,5.8
2019-03-13T10:02:15.020Z,5.8
2019-03-13T10:03:15.113Z,5.8
2019-03-13T10:04:15.165Z,5.8
2019-03-13T10:05:15.321Z,5.8
2019-03-13T10:06:15.455Z,5.8
2019-03-13T10:07:15.526Z,5.8
2019-03-13T10:08:15.432Z,5.8
2019-03-13T10:09:15.733Z,5.8
2019-03-13T10:10:15.536Z,5.8
2019-03-13T10:11:15.649Z,5.8
2019-03-13T10:12:15.699Z,5.8
2019-03-13T10:13:15.779Z,5.8
2019-03-13T10:14:15.943Z,5.7
2019-03-13T10:15:15.813Z,5.7
2019-03-13T10:16:15.836Z,5.7
2019-03-13T10:17:15.897Z,5.7
2019-03-13T10:18:15.969Z,5.8
2019-03-13T10:19:16.020Z,5.8
2019-03-13T10:20:16.077Z,5.7
2019-03-13T10:21:16.213Z,5.7
2019-03-13T10:22:16.178Z,5.7
2019-03-13T10:23:16.185Z,5.7
2019-03-13T10:24:16.288Z,5.7
2019-03-13T10:25:16.299Z,5.7
2019-03-13T10:26:16.400Z,5.7
2019-03-13T10:27:16.472Z,5.8
2019-03-13T10:28:16.506Z,5.8
2019-03-13T10:29:16.588Z,5.8
2019-03-13T10:30:16.656Z,5.8
2019-03-13T10:31:16.687Z,5.8
2019-03-13T10:32:16.863Z,5.8
2019-03-13T10:33:16.832Z,5.9
2019-03-13T10:34:16.876Z,5.9
2019-03-13T10:35:16.935Z,5.9
2019-03-13T10:36:16.984Z,5.9
2019-03-13T10:37:17.060Z,5.9
2019-03-13T10:38:17.110Z,5.9
2019-03-13T10:39:17.208Z,5.9
2019-03-13T10:40:17.251Z,5.9
2019-03-13T10:41:17.330Z,6
2019-03-13T10:42:17.381Z,6
2019-03-13T10:43:17.419Z,6
2019-03-13T10:44:17.499Z,6.1
2019-03-13T10:45:17.537Z,6.1
2019-03-13T10:46:17.597Z,6.1
2019-03-13T10:47:17.744Z,6.1
2019-03-13T10:48:17.712Z,6.1
2019-03-13T10:49:17.776Z,6.2
2019-03-13T10:50:17.827Z,6.2
2019-03-13T10:51:17.890Z,6.3
2019-03-13T10:52:17.940Z,6.3
2019-03-13T10:53:18.009Z,6.3
2019-03-13T10:54:18.046Z,6.3
2019-03-13T10:55:18.068Z,6.3
2019-03-13T10:56:18.135Z,6.3
2019-03-13T10:57:18.191Z,6.3
2019-03-13T10:58:18.233Z,6.3
2019-03-13T10:59:18.378Z,6.3
2019-03-13T11:00:18.376Z,6.3
2019-03-13T11:01:18.458Z,6.4
2019-03-13T11:02:18.488Z,6.3
2019-03-13T11:03:18.534Z,6.3
2019-03-13T11:04:18.598Z,6.2
2019-03-13T11:05:18.646Z,6.3
2019-03-13T11:06:18.734Z,6.3
2019-03-13T11:07:18.770Z,6.3
2019-03-13T11:08:18.844Z,6.2
2019-03-13T11:09:18.943Z,6.1
2019-03-13T11:10:18.956Z,6.1
2019-03-13T11:11:19.054Z,6.1
2019-03-13T11:12:19.065Z,6
2019-03-13T11:13:19.136Z,6
2019-03-13T11:14:19.266Z,6
2019-03-13T11:15:19.334Z,6
2019-03-13T11:16:19.352Z,6
2019-03-13T11:17:19.427Z,6
2019-03-13T11:18:19.473Z,6
2019-03-13T11:19:19.516Z,6
2019-03-13T11:20:19.574Z,5.9
2019-03-13T11:21:19.637Z,5.9
2019-03-13T11:22:19.701Z,5.9
2019-03-13T11:23:19.803Z,5.9
2019-03-13T11:24:19.794Z,5.9
2019-03-13T11:25:19.842Z,5.8
2019-03-13T11:26:19.881Z,5.7
2019-03-13T11:27:19.928Z,5.7
2019-03-13T11:28:19.998Z,5.7
2019-03-13T11:29:20.045Z,5.6
2019-03-13T11:30:20.791Z,5.6
2019-03-13T11:31:20.134Z,5.7
2019-03-13T11:32:20.199Z,5.6
2019-03-13T11:33:20.260Z,5.6
2019-03-13T11:34:20.325Z,5.5
2019-03-13T11:35:20.368Z,5.5
2019-03-13T11:36:20.438Z,5.6
2019-03-13T11:37:20.480Z,5.6
2019-03-13T11:38:20.525Z,5.6
2019-03-13T11:39:20.563Z,5.7
2019-03-13T11:40:20.633Z,5.7
2019-03-13T11:41:20.674Z,5.5
2019-03-13T11:42:20.706Z,5.5
2019-03-13T11:43:20.779Z,5.5
2019-03-13T11:44:21.168Z,5.6
2019-03-13T11:45:20.957Z,5.5
2019-03-13T11:46:20.932Z,5.5
2019-03-13T11:47:21.269Z,5.5
2019-03-13T11:48:21.089Z,5.5
2019-03-13T11:49:21.134Z,5.6
2019-03-13T11:50:21.201Z,5.6
2019-03-13T11:51:21.272Z,5.6
2019-03-13T11:52:21.277Z,5.6
2019-03-13T11:53:21.350Z,5.5
2019-03-13T11:54:21.382Z,5.6
2019-03-13T11:55:21.449Z,5.6
2019-03-13T11:56:21.503Z,5.7
2019-03-13T11:57:21.606Z,5.7
2019-03-13T11:58:21.626Z,5.7
2019-03-13T11:59:21.661Z,5.8
2019-03-13T12:00:21.727Z,5.8
2019-03-13T12:01:21.848Z,5.8
2019-03-13T12:02:21.864Z,5.8
2019-03-13T12:03:21.908Z,5.8
2019-03-13T12:04:21.962Z,5.8
2019-03-13T12:05:22.004Z,5.9
2019-03-13T12:06:22.068Z,5.8
2019-03-13T12:07:22.073Z,5.9
2019-03-13T12:08:22.138Z,5.9
2019-03-13T12:09:22.216Z,5.9
2019-03-13T12:10:22.269Z,5.9
2019-03-13T12:11:22.355Z,5.9
2019-03-13T12:12:22.408Z,5.9
2019-03-13T12:13:22.467Z,6
2019-03-13T12:14:22.494Z,6
2019-03-13T12:15:22.542Z,6
2019-03-13T12:16:22.627Z,6
2019-03-13T12:17:22.717Z,6
2019-03-13T12:18:22.726Z,6
2019-03-13T12:19:22.783Z,6
2019-03-13T12:20:22.869Z,6
2019-03-13T12:21:23.014Z,6
2019-03-13T12:22:23.068Z,6
2019-03-13T12:23:23.003Z,6
2019-03-13T12:24:23.065Z,6
2019-03-13T12:25:23.117Z,5.9
2019-03-13T12:26:23.192Z,5.9
2019-03-13T12:27:23.245Z,5.9
2019-03-13T12:28:23.286Z,5.9
2019-03-13T12:29:23.340Z,6
2019-03-13T12:30:23.411Z,6
2019-03-13T12:31:23.455Z,6.1
2019-03-13T12:32:23.511Z,6
2019-03-13T12:33:23.562Z,6
2019-03-13T12:34:23.613Z,6
2019-03-13T12:35:23.682Z,6
2019-03-13T12:36:23.739Z,6.1
2019-03-13T12:37:23.777Z,14.8
2019-03-13T12:38:23.825Z,6
2019-03-13T12:39:23.904Z,6.1
2019-03-13T12:40:23.953Z,6.1
2019-03-13T12:41:24.015Z,6.1
2019-03-13T12:42:24.076Z,14.9
2019-03-13T12:43:24.153Z,14.9
2019-03-13T12:44:24.245Z,6.2
2019-03-13T12:45:24.280Z,6.2
2019-03-13T12:46:24.322Z,6.2
2019-03-13T12:47:24.400Z,6.2
2019-03-13T12:48:24.466Z,6.1
2019-03-13T12:49:24.481Z,6.2
2019-03-13T12:50:24.577Z,6.2
2019-03-13T12:51:24.665Z,6.2
2019-03-13T12:52:24.930Z,6.2
2019-03-13T12:53:24.931Z,6.3
2019-03-13T12:54:25.133Z,6.3
2019-03-13T12:55:25.405Z,6.3
2019-03-13T12:56:25.177Z,6.3
2019-03-13T12:57:25.383Z,6.3
2019-03-13T12:58:25.343Z,6.3
2019-03-13T12:59:25.233Z,6.3
2019-03-13T13:00:25.313Z,6.3
2019-03-13T13:01:25.295Z,6.3
2019-03-13T13:02:25.259Z,6.3
2019-03-13T13:03:25.345Z,6.3
2019-03-13T13:04:25.425Z,6.4
2019-03-13T13:05:25.470Z,6.3
2019-03-13T13:06:25.560Z,6.4
2019-03-13T13:07:25.643Z,6.4
2019-03-13T13:08:25.688Z,6.4
2019-03-13T13:09:25.859Z,6.3
2019-03-13T13:10:25.770Z,6.4
2019-03-13T13:11:25.837Z,6.4
2019-03-13T13:12:25.925Z,6.4
2019-03-13T13:13:25.925Z,6.4
2019-03-13T13:14:26.010Z,6.4
2019-03-13T13:15:26.030Z,6.5
2019-03-13T13:16:26.062Z,6.5
2019-03-13T13:17:26.142Z,6.5
2019-03-13T13:18:26.156Z,6.5
2019-03-13T13:19:26.226Z,6.5
2019-03-13T13:20:26.258Z,6.5
2019-03-13T13:21:26.306Z,6.4
2019-03-13T13:22:26.405Z,6.4
2019-03-13T13:23:26.455Z,6.4
2019-03-13T13:24:26.506Z,6.4
2019-03-13T13:25:26.535Z,6.4
2019-03-13T13:26:26.576Z,6.4
2019-03-13T13:27:26.623Z,6.4
2019-03-13T13:28:26.704Z,6.4
2019-03-13T13:29:26.728Z,6.4
2019-03-13T13:30:26.883Z,6.4
2019-03-13T13:31:27.062Z,6.3
2019-03-13T13:32:26.993Z,6.3
2019-03-13T13:33:26.990Z,6.3
2019-03-13T13:34:27.056Z,6.3
2019-03-13T13:35:27.106Z,6.2
2019-03-13T13:36:27.294Z,6.1
2019-03-13T13:37:27.201Z,6
2019-03-13T13:38:27.267Z,6
2019-03-13T13:39:27.334Z,5.9
2019-03-13T13:40:27.384Z,5.9
2019-03-13T13:41:27.614Z,5.9
2019-03-13T13:42:27.484Z,5.8
2019-03-13T13:43:27.531Z,5.8
2019-03-13T13:44:27.680Z,5.8
2019-03-13T13:45:27.670Z,5.8
2019-03-13T13:46:27.686Z,5.8
2019-03-13T13:47:27.751Z,5.8
2019-03-13T13:48:27.825Z,5.7
2019-03-13T13:49:27.914Z,5.6
2019-03-13T13:50:27.921Z,5.6
2019-03-13T13:51:28.009Z,5.7